Aeroporto :
LOGIN :

Iscrizione | Disclaimer

   EN    FR    IT 

 










Sommario :    VFR   VFR Marginale   IFR   IFR Intensivo   IFR Molto Intensivo
Visibilità : 
Base nubi : 
>= 8 km
>= 3000ft
5 / 8 km
1000 / 3000 ft
1500m / 5 km
500 / 1000 ft
800 / 1500m
200 / 500 ft
< 800m
< 200 ft
Simboli :   Temporali  Nebbia  Neve Forte  Precipitazioni Forti  Vento > 20 kt
SIGMETs :   Varie  Temporali  Ghiacco  Turbolenza  Onda orograficha  Ceneri Vulcaniche






- Altitudine del aeroporto : 32 ft
- Codice IATA : LKZ


EGUL - RAF Lakenheath

ULTIMO METAR :
  • 200756Z 30006KT 9999 FEW043 BKN050 02/01 A3051 RMK AO2A SLP336 T00150014 $

METARs OBSOLETI :
  • 200656Z 30005KT 9999 BKN050 01/01 A3048 RMK AO2A SLP326 T00080007 $
  • 200556Z 00000KT 9999 SCT033 BKN055 02/02 A3047 RMK AO2A SLP322 T00170016 10017 21002 52012 $

TAF AMD TAF EGUL
Valido dal 20 a 08 ore il 21 a 12 ore UTC


200806Z 2008/2112 33010G15KT 9999 SCT015 BKN040 620402 QNH3044INS
BECMG 2010/2011 33012G18KT 9999 SCT015 BKN025 620253 QNH3055INS
TEMPO 2015/2017 BKN015 600153
BECMG 2019/2020 32009KT 9999 SCT030 QNH3065INS
BECMG 2108/2109 28012KT 9999 SCT010 BKN020 QNH3068INS TX05/2014Z TNM03/2103Z



MetMap, La meteo Aeronautica in un colpo d'occhio ! - Copyright ORBIFLY Dicembre 2007 - Disclaimer

ORBIFLY MET'MAP TEAM :

Programmazione e sviluppo : Alexandra Zaïnal
Concezione : Baudouin d'Aumeries
Aiuto per la programmazione : Marc-Olivier Méhu
Supporto tecnico e logistico : Manuel Goepfert
Aiuto per la traduzione : Arnaldo La Scala

Contatto : metmap@orbifly.com




FONTI E CREDITI :

   NOAA